createdAt,value
2019-03-24T00:00:28.452Z,21.80
2019-03-24T00:01:28.468Z,21.30
2019-03-24T00:02:28.509Z,24.70
2019-03-24T00:03:28.497Z,17.80
2019-03-24T00:04:28.510Z,21.90
2019-03-24T00:05:28.516Z,21.80
2019-03-24T00:06:28.547Z,23.00
2019-03-24T00:07:28.609Z,21.40
2019-03-24T00:08:28.563Z,22.80
2019-03-24T00:09:28.579Z,20.80
2019-03-24T00:10:28.585Z,19.40
2019-03-24T00:11:28.613Z,19.90
2019-03-24T00:12:28.638Z,21.70
2019-03-24T00:13:28.660Z,20.20
2019-03-24T00:14:28.658Z,21.30
2019-03-24T00:15:28.688Z,19.00
2019-03-24T00:16:28.728Z,21.20
2019-03-24T00:17:28.682Z,22.70
2019-03-24T00:18:28.719Z,16.90
2019-03-24T00:19:28.712Z,21.90
2019-03-24T00:20:28.722Z,16.80
2019-03-24T00:21:28.750Z,18.90
2019-03-24T00:22:28.759Z,19.00
2019-03-24T00:23:28.764Z,22.00
2019-03-24T00:24:28.781Z,20.70
2019-03-24T00:25:28.787Z,17.20
2019-03-24T00:26:28.836Z,22.60
2019-03-24T00:27:28.869Z,21.50
2019-03-24T00:28:28.852Z,19.00
2019-03-24T00:29:28.862Z,21.00
2019-03-24T00:30:28.901Z,21.60
2019-03-24T00:31:28.877Z,21.60
2019-03-24T00:32:28.890Z,22.70
2019-03-24T00:33:28.964Z,17.40
2019-03-24T00:34:28.912Z,25.50
2019-03-24T00:35:28.925Z,19.40
2019-03-24T00:36:28.966Z,23.50
2019-03-24T00:37:28.956Z,22.90
2019-03-24T00:38:29.020Z,17.60
2019-03-24T00:39:28.983Z,21.70
2019-03-24T00:40:29.041Z,23.90
2019-03-24T00:41:29.015Z,23.80
2019-03-24T00:42:29.049Z,21.30
2019-03-24T00:43:29.039Z,20.70
2019-03-24T00:44:29.070Z,20.10
2019-03-24T00:45:36.834Z,22.70
2019-03-24T00:46:29.101Z,19.30
2019-03-24T00:47:29.095Z,20.50
2019-03-24T00:48:29.101Z,20.10
2019-03-24T00:49:29.139Z,24.10
2019-03-24T00:50:29.129Z,22.70
2019-03-24T00:51:29.168Z,20.30
2019-03-24T00:52:29.158Z,19.80
2019-03-24T00:53:29.172Z,18.30
2019-03-24T00:54:29.249Z,21.80
2019-03-24T00:55:29.208Z,19.80
2019-03-24T00:56:29.240Z,20.80
2019-03-24T00:57:29.255Z,18.60
2019-03-24T00:58:29.266Z,18.50
2019-03-24T00:59:29.311Z,20.00
2019-03-24T01:00:29.325Z,21.90
2019-03-24T01:01:29.272Z,20.20
2019-03-24T01:02:29.321Z,19.70
2019-03-24T01:03:29.325Z,17.50
2019-03-24T01:04:29.323Z,23.30
2019-03-24T01:05:29.374Z,20.30
2019-03-24T01:06:29.348Z,22.10
2019-03-24T01:07:29.413Z,20.80
2019-03-24T01:08:29.411Z,25.30
2019-03-24T01:09:29.417Z,22.50
2019-03-24T01:10:29.423Z,22.50
2019-03-24T01:11:29.430Z,17.70
2019-03-24T01:12:29.429Z,18.90
2019-03-24T01:13:29.439Z,20.70
2019-03-24T01:14:29.450Z,19.40
2019-03-24T01:15:29.496Z,19.90
2019-03-24T01:16:29.479Z,18.40
2019-03-24T01:17:29.515Z,22.80
2019-03-24T01:18:29.514Z,20.00
2019-03-24T01:19:29.552Z,23.80
2019-03-24T01:20:29.533Z,22.20
2019-03-24T01:21:29.554Z,21.70
2019-03-24T01:22:29.618Z,19.60
2019-03-24T01:23:29.573Z,20.90
2019-03-24T01:24:29.622Z,22.80
2019-03-24T01:25:29.596Z,21.90
2019-03-24T01:26:29.619Z,20.70
2019-03-24T01:27:29.635Z,17.90
2019-03-24T01:28:29.637Z,17.60
2019-03-24T01:29:29.697Z,21.50
2019-03-24T01:30:29.664Z,20.90
2019-03-24T01:31:29.685Z,17.40
2019-03-24T01:32:29.696Z,22.20
2019-03-24T01:33:29.710Z,18.30
2019-03-24T01:34:29.776Z,20.10
2019-03-24T01:35:29.777Z,20.90
2019-03-24T01:36:29.756Z,18.20
2019-03-24T01:37:29.764Z,17.70
2019-03-24T01:38:29.768Z,26.10
2019-03-24T01:39:29.787Z,22.40
2019-03-24T01:40:29.858Z,24.00
2019-03-24T01:41:29.818Z,18.90
2019-03-24T01:42:29.837Z,20.00
2019-03-24T01:43:29.849Z,17.60
2019-03-24T01:44:29.854Z,19.80
2019-03-24T01:45:29.916Z,18.40
2019-03-24T01:46:29.931Z,19.40
2019-03-24T01:47:29.970Z,22.40
2019-03-24T01:48:29.914Z,22.70
2019-03-24T01:49:29.917Z,17.10
2019-03-24T01:50:29.969Z,23.70
2019-03-24T01:51:29.954Z,19.40
2019-03-24T01:52:29.961Z,20.50
2019-03-24T01:53:29.976Z,20.90
2019-03-24T01:54:30.010Z,18.90
2019-03-24T01:55:30.031Z,17.30
2019-03-24T01:56:30.022Z,19.00
2019-03-24T01:57:30.069Z,16.60
2019-03-24T01:58:30.046Z,19.40
2019-03-24T01:59:30.055Z,18.30
2019-03-24T02:00:30.102Z,18.60
2019-03-24T02:01:30.134Z,23.30
2019-03-24T02:02:30.104Z,18.50
2019-03-24T02:03:30.136Z,17.50
2019-03-24T02:04:30.126Z,19.60
2019-03-24T02:05:30.165Z,19.50
2019-03-24T02:06:30.154Z,18.00
2019-03-24T02:07:30.158Z,19.40
2019-03-24T02:08:30.202Z,19.30
2019-03-24T02:09:30.238Z,19.90
2019-03-24T02:10:30.272Z,17.30
2019-03-24T02:11:30.222Z,21.80
2019-03-24T02:12:30.238Z,20.50
2019-03-24T02:13:30.239Z,21.40
2019-03-24T02:14:30.257Z,18.90
2019-03-24T02:15:30.278Z,19.70
2019-03-24T02:16:30.332Z,18.30
2019-03-24T02:17:30.304Z,19.90
2019-03-24T02:18:30.342Z,21.10
2019-03-24T02:19:30.360Z,21.50
2019-03-24T02:20:30.353Z,15.60
2019-03-24T02:21:30.358Z,22.80
2019-03-24T02:22:30.359Z,25.00
2019-03-24T02:23:30.443Z,22.20
2019-03-24T02:24:30.384Z,20.70
2019-03-24T02:25:30.438Z,20.60
2019-03-24T02:26:30.420Z,19.40
2019-03-24T02:27:30.424Z,18.30
2019-03-24T02:28:30.458Z,21.40
2019-03-24T02:29:30.489Z,23.40
2019-03-24T02:30:30.485Z,21.40
2019-03-24T02:31:30.491Z,21.30
2019-03-24T02:32:30.495Z,21.10
2019-03-24T02:33:30.503Z,23.20
2019-03-24T02:34:30.527Z,20.20
2019-03-24T02:35:30.529Z,20.00
2019-03-24T02:36:30.593Z,18.50
2019-03-24T02:37:30.558Z,19.30
2019-03-24T02:38:30.568Z,18.80
2019-03-24T02:39:30.611Z,24.30
2019-03-24T02:40:30.603Z,20.20
2019-03-24T02:41:32.474Z,20.20
2019-03-24T02:42:30.670Z,24.90
2019-03-24T02:43:30.669Z,25.10
2019-03-24T02:44:30.672Z,23.80
2019-03-24T02:45:30.666Z,22.60
2019-03-24T02:46:30.683Z,24.30
2019-03-24T02:47:30.687Z,21.20
2019-03-24T02:48:30.719Z,24.20
2019-03-24T02:49:30.719Z,23.60
2019-03-24T02:50:30.741Z,26.90
2019-03-24T02:51:30.735Z,30.90
2019-03-24T02:52:30.758Z,21.50
2019-03-24T02:53:30.776Z,24.90
2019-03-24T02:54:30.846Z,25.30
2019-03-24T02:55:30.851Z,23.30
2019-03-24T02:56:30.899Z,22.90
2019-03-24T02:57:30.866Z,24.60
2019-03-24T02:58:30.830Z,23.20
2019-03-24T02:59:30.871Z,19.30
2019-03-24T03:00:30.893Z,27.60
2019-03-24T03:01:30.871Z,26.10
2019-03-24T03:02:30.908Z,24.40
2019-03-24T03:03:30.908Z,23.20
2019-03-24T03:04:30.907Z,19.70
2019-03-24T03:05:30.918Z,25.80
2019-03-24T03:06:30.965Z,22.80
2019-03-24T03:07:30.947Z,25.30
2019-03-24T03:08:31.002Z,20.30
2019-03-24T03:09:30.989Z,25.40
2019-03-24T03:10:30.987Z,22.40
2019-03-24T03:11:31.070Z,24.70
2019-03-24T03:12:31.018Z,26.50
2019-03-24T03:13:31.099Z,21.70
2019-03-24T03:14:31.038Z,23.30
2019-03-24T03:15:31.099Z,25.80
2019-03-24T03:16:38.517Z,24.80
2019-03-24T03:17:31.114Z,27.30
2019-03-24T03:18:31.101Z,24.70
2019-03-24T03:19:31.120Z,21.00
2019-03-24T03:20:31.143Z,23.40
2019-03-24T03:21:31.130Z,22.70
2019-03-24T03:22:31.158Z,24.30
2019-03-24T03:23:31.172Z,27.00
2019-03-24T03:24:31.177Z,27.00
2019-03-24T03:25:31.181Z,26.30
2019-03-24T03:26:31.194Z,24.30
2019-03-24T03:27:31.252Z,26.90
2019-03-24T03:28:31.221Z,23.00
2019-03-24T03:29:31.237Z,24.60
2019-03-24T03:30:31.275Z,28.00
2019-03-24T03:31:31.300Z,26.20
2019-03-24T03:32:31.281Z,27.50
2019-03-24T03:33:31.298Z,23.70
2019-03-24T03:34:31.307Z,26.10
2019-03-24T03:35:31.367Z,26.20
2019-03-24T03:36:31.373Z,27.10
2019-03-24T03:37:31.344Z,26.40
2019-03-24T03:38:31.364Z,25.10
2019-03-24T03:39:31.364Z,29.70
2019-03-24T03:40:31.380Z,25.90
2019-03-24T03:41:31.390Z,24.40
2019-03-24T03:42:31.414Z,26.80
2019-03-24T03:43:31.419Z,32.50
2019-03-24T03:44:31.430Z,26.10
2019-03-24T03:45:31.452Z,25.60
2019-03-24T03:46:31.480Z,26.50
2019-03-24T03:47:31.471Z,28.50
2019-03-24T03:48:31.515Z,24.60
2019-03-24T03:49:31.506Z,26.00
2019-03-24T03:50:31.509Z,32.20
2019-03-24T03:51:31.528Z,25.30
2019-03-24T03:52:31.535Z,26.00
2019-03-24T03:53:31.578Z,25.50
2019-03-24T03:54:31.553Z,26.40
2019-03-24T03:55:31.576Z,26.10
2019-03-24T03:56:31.585Z,32.10
2019-03-24T03:57:31.627Z,29.60
2019-03-24T03:58:31.620Z,29.00
2019-03-24T03:59:31.656Z,26.30
2019-03-24T04:00:31.645Z,31.30
2019-03-24T04:01:31.689Z,27.30
2019-03-24T04:02:31.662Z,27.10
2019-03-24T04:03:31.676Z,29.70
2019-03-24T04:04:31.722Z,27.80
2019-03-24T04:05:31.709Z,25.60
2019-03-24T04:06:31.715Z,27.50
2019-03-24T04:07:31.726Z,27.00
2019-03-24T04:08:31.768Z,25.70
2019-03-24T04:09:31.799Z,30.40
2019-03-24T04:10:31.765Z,27.30
2019-03-24T04:11:31.775Z,31.30
2019-03-24T04:12:31.791Z,28.70
2019-03-24T04:13:31.843Z,30.80
2019-03-24T04:14:31.859Z,27.30
2019-03-24T04:15:31.830Z,29.30
2019-03-24T04:16:31.906Z,26.00
2019-03-24T04:17:31.856Z,28.70
2019-03-24T04:18:31.910Z,23.70
2019-03-24T04:19:31.949Z,27.80
2019-03-24T04:20:31.906Z,28.90
2019-03-24T04:21:31.942Z,27.00
2019-03-24T04:22:31.921Z,29.60
2019-03-24T04:23:31.972Z,27.80
2019-03-24T04:24:31.954Z,28.10
2019-03-24T04:25:32.021Z,27.80
2019-03-24T04:26:31.969Z,29.90
2019-03-24T04:27:31.985Z,28.20
2019-03-24T04:28:31.999Z,23.80
2019-03-24T04:29:32.003Z,26.50
2019-03-24T04:30:32.057Z,25.80
2019-03-24T04:31:32.051Z,24.60
2019-03-24T04:32:32.140Z,22.60
2019-03-24T04:33:32.064Z,33.30
2019-03-24T04:34:32.073Z,29.00
2019-03-24T04:35:32.088Z,27.80
2019-03-24T04:36:32.121Z,25.50
2019-03-24T04:37:33.184Z,26.30
2019-03-24T04:38:32.141Z,22.10
2019-03-24T04:39:32.144Z,27.50
2019-03-24T04:40:32.154Z,30.10
2019-03-24T04:41:32.200Z,28.10
2019-03-24T04:42:32.185Z,24.80
2019-03-24T04:43:32.227Z,32.20
2019-03-24T04:44:32.209Z,25.80
2019-03-24T04:45:32.216Z,29.60
2019-03-24T04:46:32.230Z,29.00
2019-03-24T04:47:32.265Z,23.90
2019-03-24T04:48:32.251Z,23.90
2019-03-24T04:49:32.329Z,27.60
2019-03-24T04:50:32.296Z,25.80
2019-03-24T04:51:32.293Z,31.80
2019-03-24T04:52:32.304Z,26.10
2019-03-24T04:53:32.391Z,26.60
2019-03-24T04:54:32.373Z,28.70
2019-03-24T04:55:32.344Z,25.00
2019-03-24T04:56:32.361Z,25.40
2019-03-24T04:57:32.427Z,23.30
2019-03-24T04:58:32.378Z,20.20
2019-03-24T04:59:32.393Z,25.30
2019-03-24T05:00:32.444Z,22.70
2019-03-24T05:01:32.418Z,29.80
2019-03-24T05:02:32.432Z,20.00
2019-03-24T05:03:32.522Z,23.60
2019-03-24T05:04:32.518Z,22.70
2019-03-24T05:05:32.469Z,25.30
2019-03-24T05:06:32.516Z,24.30
2019-03-24T05:07:32.503Z,24.50
2019-03-24T05:08:32.528Z,24.70
2019-03-24T05:09:32.547Z,30.10
2019-03-24T05:10:32.557Z,25.80
2019-03-24T05:11:32.578Z,24.30
2019-03-24T05:12:32.618Z,25.80
2019-03-24T05:13:32.574Z,23.80
2019-03-24T05:14:32.642Z,21.70
2019-03-24T05:15:32.612Z,23.90
2019-03-24T05:16:32.612Z,25.70
2019-03-24T05:17:32.626Z,20.80
2019-03-24T05:18:32.647Z,25.40
2019-03-24T05:19:32.650Z,24.30
2019-03-24T05:20:32.673Z,24.40
2019-03-24T05:21:32.680Z,20.90
2019-03-24T05:22:32.748Z,24.00
2019-03-24T05:23:32.859Z,25.70
2019-03-24T05:24:41.253Z,24.50
2019-03-24T05:25:34.652Z,28.50
2019-03-24T05:26:42.681Z,27.40
2019-03-24T05:28:26.995Z,29.30
2019-03-24T05:31:06.157Z,21.80
2019-03-24T05:33:46.833Z,28.10
2019-03-24T05:34:46.208Z,27.50
2019-03-24T05:35:54.333Z,25.50
2019-03-24T05:37:52.026Z,22.50
2019-03-24T05:39:00.984Z,23.50
2019-03-24T05:39:59.483Z,23.00
2019-03-24T05:41:57.469Z,20.40
